createdAt,value
2019-01-20T12:48:19.444Z,45.30
2019-01-20T12:50:49.765Z,46.60
2019-01-20T12:53:20.005Z,45.90
2019-01-20T12:55:50.556Z,45.80
2019-01-20T12:58:20.968Z,45.70
2019-01-20T13:00:51.207Z,45.60
2019-01-20T13:03:21.440Z,45.50
2019-01-20T13:05:51.691Z,45.30
2019-01-20T13:08:21.932Z,45.20
2019-01-20T13:10:52.263Z,45.10
2019-01-20T13:13:22.490Z,45.00
2019-01-20T13:15:52.776Z,45.00
2019-01-20T13:18:23.132Z,45.00
2019-01-20T13:20:53.599Z,45.00
2019-01-20T13:23:23.820Z,45.00
2019-01-20T13:25:54.124Z,44.90
2019-01-20T13:28:24.364Z,44.90
2019-01-20T13:30:54.571Z,44.90
2019-01-20T13:33:24.867Z,44.80
2019-01-20T13:35:55.100Z,44.70
2019-01-20T13:38:25.320Z,44.70
2019-01-20T13:40:57.675Z,44.70
2019-01-20T13:43:27.896Z,44.70
2019-01-20T13:45:58.132Z,44.70
2019-01-20T13:48:28.420Z,44.80
2019-01-20T13:50:58.716Z,44.60
2019-01-20T13:53:30.111Z,44.60
2019-01-20T13:56:01.334Z,44.60
2019-01-20T16:39:25.755Z,43.40
2019-01-20T16:41:56.308Z,43.90
2019-01-20T16:44:26.624Z,43.40
2019-01-20T16:46:56.839Z,43.40
2019-01-20T16:49:27.127Z,43.40
2019-01-20T16:51:57.416Z,43.40
2019-01-20T16:54:27.631Z,43.50
2019-01-20T16:56:57.859Z,43.60
2019-01-20T16:59:28.115Z,43.70
2019-01-20T17:01:58.343Z,43.80
2019-01-20T17:04:29.237Z,43.60
2019-01-20T17:06:59.676Z,43.50
2019-01-20T17:09:29.904Z,43.50
2019-01-20T17:12:00.587Z,44.00
2019-01-20T17:14:30.799Z,43.50
2019-01-20T17:17:01.079Z,43.40
2019-01-20T17:19:31.308Z,43.50
2019-01-20T17:22:01.520Z,43.60
2019-01-20T17:24:31.731Z,43.40
2019-01-20T17:27:01.944Z,43.50
2019-01-20T17:29:32.151Z,43.50
2019-01-20T17:32:03.586Z,44.20
2019-01-20T17:34:34.153Z,43.70
2019-01-20T17:37:04.373Z,44.00
2019-01-20T17:39:34.609Z,44.70
2019-01-20T17:42:04.833Z,43.90
2019-01-20T17:44:35.282Z,43.80
2019-01-20T17:47:05.496Z,43.90
2019-01-20T17:49:35.711Z,43.90
2019-01-20T17:52:05.943Z,43.90
2019-01-20T17:54:36.167Z,44.00
2019-01-20T17:57:06.397Z,44.00
2019-01-20T17:59:36.643Z,44.10
2019-01-20T18:02:07.051Z,44.00
2019-01-20T18:04:37.280Z,44.00
2019-01-20T18:07:07.493Z,43.80
2019-01-20T18:09:37.719Z,43.60
2019-01-20T18:12:08.180Z,43.40
2019-01-20T18:14:39.357Z,43.10
2019-01-20T18:17:09.564Z,42.90
2019-01-20T18:19:39.775Z,42.70
2019-01-20T18:22:10.012Z,42.80
2019-01-20T18:24:40.234Z,42.70
2019-01-20T18:27:10.519Z,42.80
2019-01-20T18:29:40.749Z,42.80
2019-01-20T18:32:10.959Z,43.40
2019-01-20T18:34:41.176Z,42.80
2019-01-20T18:37:11.408Z,43.60
2019-01-20T18:39:41.627Z,44.80
2019-01-20T18:42:11.856Z,44.10
2019-01-20T18:44:42.099Z,44.90
2019-01-20T18:47:12.323Z,44.50
2019-01-20T18:49:42.605Z,44.40
2019-01-20T18:52:12.876Z,44.20
2019-01-20T18:54:43.184Z,44.20
2019-01-20T18:57:13.423Z,44.10
2019-01-20T18:59:43.809Z,44.10
2019-01-20T19:02:14.043Z,44.20
2019-01-20T19:04:44.279Z,44.10
2019-01-20T19:07:14.664Z,44.70
2019-01-20T19:09:44.905Z,44.80
2019-01-20T19:12:15.384Z,45.30
2019-01-20T19:14:45.615Z,45.30
2019-01-20T19:17:15.852Z,45.20
2019-01-20T19:19:46.163Z,45.70
2019-01-20T19:22:16.507Z,45.90
2019-01-20T19:24:46.747Z,46.00
2019-01-20T19:27:17.063Z,46.00
2019-01-20T19:29:47.311Z,45.80
2019-01-20T19:32:17.554Z,46.10
2019-01-20T19:34:47.788Z,45.90
2019-01-20T19:37:18.026Z,45.60
2019-01-20T19:39:50.637Z,45.60
2019-01-20T19:42:20.207Z,45.40
2019-01-20T19:44:50.556Z,45.20
2019-01-20T19:47:20.792Z,45.20
2019-01-20T19:49:51.067Z,45.20
2019-01-20T19:52:21.295Z,45.10
2019-01-20T19:54:51.536Z,45.00
2019-01-20T19:57:21.772Z,45.00
2019-01-20T19:59:52.016Z,45.00
2019-01-20T20:02:22.243Z,44.90
2019-01-20T20:04:52.480Z,44.90
2019-01-20T20:07:22.716Z,44.90
2019-01-20T20:09:52.963Z,45.00
2019-01-20T20:12:23.330Z,44.80
2019-01-20T20:14:53.565Z,44.80
2019-01-20T20:17:23.803Z,44.80
2019-01-20T20:19:54.040Z,44.70
2019-01-20T20:22:24.284Z,44.80
2019-01-20T20:24:54.515Z,44.70
2019-01-20T20:27:24.775Z,44.70
2019-01-20T20:29:54.985Z,44.60
2019-01-20T20:32:25.211Z,44.60
